createdAt,value
2017-02-13T00:00:16.203Z,74.47
2017-02-13T00:00:37.911Z,74.50
2017-02-13T00:00:59.611Z,74.56
2017-02-13T00:01:21.422Z,74.58
2017-02-13T00:01:52.682Z,74.67
2017-02-13T00:02:14.384Z,74.97
2017-02-13T00:02:40.886Z,74.98
2017-02-13T00:03:04.812Z,74.84
2017-02-13T00:03:31.294Z,74.88
2017-02-13T00:03:52.996Z,74.95
2017-02-13T00:04:14.724Z,74.86
2017-02-13T00:05:17.781Z,74.79
2017-02-13T00:05:39.476Z,74.78
2017-02-13T00:06:01.190Z,74.63
2017-02-13T00:06:22.909Z,74.52
2017-02-13T00:06:44.616Z,74.45
2017-02-13T00:07:06.321Z,74.63
2017-02-13T00:07:35.620Z,74.70
2017-02-13T00:08:06.872Z,74.72
2017-02-13T00:08:28.604Z,74.75
2017-02-13T00:08:55.070Z,74.62
2017-02-13T00:09:16.775Z,74.59
2017-02-13T00:09:38.497Z,74.57
2017-02-13T00:10:04.964Z,74.61
2017-02-13T00:10:26.688Z,74.63
2017-02-13T00:10:48.389Z,74.66
2017-02-13T00:11:10.097Z,74.73
2017-02-13T00:11:31.793Z,74.75
2017-02-13T00:11:53.610Z,74.69
2017-02-13T00:12:20.091Z,74.92
2017-02-13T00:12:41.800Z,75.04
2017-02-13T00:13:13.049Z,74.89
2017-02-13T00:13:34.855Z,74.86
2017-02-13T00:14:01.348Z,75.07
2017-02-13T00:14:23.060Z,75.10
2017-02-13T00:14:54.304Z,75.21
2017-02-13T00:15:16.022Z,75.31
2017-02-13T00:15:37.721Z,75.35
2017-02-13T00:16:04.221Z,75.33
2017-02-13T00:16:25.926Z,75.21
2017-02-13T00:16:47.633Z,75.25
2017-02-13T00:17:14.120Z,75.11
2017-02-13T00:17:35.946Z,75.05
2017-02-13T00:17:57.663Z,75.03
2017-02-13T00:18:19.365Z,75.04
2017-02-13T00:18:41.087Z,74.91
2017-02-13T00:19:02.804Z,74.84
2017-02-13T00:19:24.512Z,74.84
2017-02-13T00:19:46.221Z,74.75
2017-02-13T00:20:07.919Z,74.66
2017-02-13T00:20:29.622Z,74.51
2017-02-13T00:20:51.348Z,74.49
2017-02-13T00:21:13.040Z,74.47
2017-02-13T00:21:34.740Z,74.63
2017-02-13T00:21:56.444Z,74.78
2017-02-13T00:22:18.168Z,74.99
2017-02-13T00:22:44.646Z,75.25
2017-02-13T00:23:06.352Z,75.18
2017-02-13T00:23:32.840Z,75.29
2017-02-13T00:23:54.586Z,75.48
2017-02-13T00:24:16.320Z,75.47
2017-02-13T00:24:38.033Z,75.18
2017-02-13T00:24:59.742Z,75.03
2017-02-13T00:25:26.217Z,74.96
2017-02-13T00:25:47.915Z,75.04
2017-02-13T00:26:14.391Z,75.35
2017-02-13T00:26:36.107Z,75.46
2017-02-13T00:26:57.830Z,75.47
2017-02-13T00:27:56.109Z,75.31
2017-02-13T00:28:17.818Z,75.35
2017-02-13T00:28:39.525Z,75.45
2017-02-13T00:29:01.242Z,75.27
2017-02-13T00:29:22.978Z,75.20
2017-02-13T00:29:54.246Z,75.25
2017-02-13T00:30:15.957Z,75.21
2017-02-13T00:30:37.673Z,75.29
2017-02-13T00:30:59.377Z,75.31
2017-02-13T00:31:21.093Z,75.27
2017-02-13T00:31:42.795Z,75.24
2017-02-13T00:32:09.290Z,75.30
2017-02-13T00:32:30.991Z,75.26
2017-02-13T00:32:52.705Z,75.38
2017-02-13T00:33:19.198Z,75.45
2017-02-13T00:33:40.903Z,75.38
2017-02-13T00:34:02.592Z,75.45
2017-02-13T00:34:29.074Z,75.42
2017-02-13T00:34:50.779Z,75.32
2017-02-13T00:35:53.290Z,75.36
2017-02-13T00:36:15.040Z,75.52
2017-02-13T00:36:41.528Z,75.32
2017-02-13T00:37:03.221Z,75.21
2017-02-13T00:37:24.946Z,74.96
2017-02-13T00:38:32.267Z,75.42
2017-02-13T00:38:53.972Z,75.61
2017-02-13T00:39:15.680Z,75.77
2017-02-13T00:39:42.176Z,75.72
2017-02-13T00:40:03.873Z,75.66
2017-02-13T00:40:35.111Z,75.53
2017-02-13T00:40:56.805Z,75.47
2017-02-13T00:41:18.504Z,75.36
2017-02-13T00:41:44.978Z,75.42
2017-02-13T00:42:06.686Z,75.46
2017-02-13T00:42:28.403Z,75.56
2017-02-13T00:42:54.874Z,75.71
2017-02-13T00:43:16.591Z,75.69
2017-02-13T00:43:43.057Z,75.79
2017-02-13T00:44:04.767Z,75.73
2017-02-13T00:44:31.257Z,75.80
2017-02-13T00:44:52.986Z,75.76
2017-02-13T00:45:19.473Z,75.71
2017-02-13T00:45:41.182Z,75.76
2017-02-13T00:46:02.881Z,75.73
2017-02-13T00:46:24.614Z,75.65
2017-02-13T00:46:46.317Z,75.52
2017-02-13T00:47:08.026Z,75.55
2017-02-13T00:47:34.497Z,75.48
2017-02-13T00:47:56.202Z,75.40
2017-02-13T00:48:22.692Z,75.24
2017-02-13T00:48:44.392Z,75.42
2017-02-13T00:49:10.887Z,75.51
2017-02-13T00:49:32.591Z,75.57
2017-02-13T00:49:54.335Z,75.42
2017-02-13T00:50:16.042Z,75.61
2017-02-13T00:50:37.737Z,75.63
2017-02-13T00:51:09.000Z,75.71
2017-02-13T00:51:30.708Z,75.50
2017-02-13T00:52:42.759Z,75.42
2017-02-13T00:53:04.456Z,75.29
2017-02-13T00:53:30.964Z,75.22
2017-02-13T00:53:52.669Z,75.19
2017-02-13T00:54:14.389Z,75.09
2017-02-13T00:54:40.880Z,75.08
2017-02-13T00:55:02.599Z,75.03
2017-02-13T00:55:29.090Z,75.08
2017-02-13T00:55:50.791Z,75.17
2017-02-13T00:56:17.285Z,75.28
2017-02-13T00:56:39.022Z,75.28
2017-02-13T00:57:05.481Z,75.33
2017-02-13T00:57:27.189Z,75.32
2017-02-13T00:57:58.438Z,75.16
2017-02-13T00:58:20.145Z,75.03
2017-02-13T00:58:51.402Z,75.11
2017-02-13T00:59:13.087Z,75.09
2017-02-13T00:59:44.353Z,75.00
2017-02-13T01:00:06.048Z,74.93
2017-02-13T01:00:37.297Z,74.70
2017-02-13T01:00:59.005Z,74.51
2017-02-13T01:01:20.720Z,74.51
2017-02-13T01:01:42.460Z,74.59
2017-02-13T01:02:04.168Z,74.61
2017-02-13T01:02:35.419Z,74.48
2017-02-13T01:02:57.123Z,74.36
2017-02-13T01:03:23.607Z,74.53
2017-02-13T01:03:45.320Z,74.64
2017-02-13T01:04:11.784Z,74.70
2017-02-13T01:04:33.480Z,74.91
2017-02-13T01:04:59.985Z,75.14
2017-02-13T01:05:21.678Z,75.17
2017-02-13T01:05:48.165Z,75.37
2017-02-13T01:06:09.869Z,75.24
2017-02-13T01:06:36.369Z,75.16
2017-02-13T01:07:07.645Z,75.10
2017-02-13T01:07:29.345Z,75.16
2017-02-13T01:07:51.073Z,75.06
2017-02-13T01:08:17.556Z,75.05
2017-02-13T01:08:39.238Z,75.05
2017-02-13T01:09:00.971Z,75.29
2017-02-13T01:09:22.676Z,75.26
2017-02-13T01:09:44.369Z,75.78
2017-02-13T01:10:06.091Z,75.89
2017-02-13T01:10:27.827Z,75.75
2017-02-13T01:10:49.512Z,75.58
2017-02-13T01:11:11.233Z,75.36
2017-02-13T01:12:14.329Z,75.26
2017-02-13T01:12:36.031Z,75.25
2017-02-13T01:12:57.731Z,75.08
2017-02-13T01:13:24.213Z,75.06
2017-02-13T01:13:45.921Z,75.01
2017-02-13T01:14:07.615Z,75.02
2017-02-13T01:14:34.093Z,74.85
2017-02-13T01:14:55.793Z,75.04
2017-02-13T01:15:22.279Z,75.09
2017-02-13T01:15:43.992Z,75.15
2017-02-13T01:16:10.470Z,75.07
2017-02-13T01:16:32.177Z,74.96
2017-02-13T01:16:53.896Z,74.93
2017-02-13T01:17:25.165Z,74.82
2017-02-13T01:17:46.864Z,75.04
2017-02-13T01:18:54.152Z,75.04
2017-02-13T01:19:15.882Z,75.15
2017-02-13T01:20:14.168Z,75.04
2017-02-13T01:20:35.878Z,75.02
2017-02-13T01:21:38.391Z,74.90
2017-02-13T01:22:00.089Z,74.88
2017-02-13T01:22:21.831Z,74.93
2017-02-13T01:22:48.317Z,74.82
2017-02-13T01:23:10.017Z,74.86
2017-02-13T01:23:31.723Z,74.77
2017-02-13T01:23:53.425Z,74.83
2017-02-13T01:24:15.119Z,74.87
2017-02-13T01:24:36.817Z,74.83
2017-02-13T01:24:58.529Z,74.88
2017-02-13T01:25:20.232Z,74.98
2017-02-13T01:25:51.488Z,75.18
2017-02-13T01:26:13.197Z,75.24
2017-02-13T01:27:11.512Z,75.11
2017-02-13T01:27:33.263Z,74.95
2017-02-13T01:27:54.959Z,75.06
2017-02-13T01:28:21.428Z,75.00
2017-02-13T01:28:43.140Z,74.90
2017-02-13T01:29:09.612Z,74.85
2017-02-13T01:29:31.328Z,74.95
2017-02-13T01:29:53.036Z,75.00
2017-02-13T01:30:19.521Z,75.04
2017-02-13T01:30:41.227Z,75.00
2017-02-13T01:31:07.698Z,74.94
2017-02-13T01:31:29.396Z,74.88
2017-02-13T01:31:55.873Z,74.88
2017-02-13T01:32:17.615Z,74.91
2017-02-13T01:32:44.088Z,74.92
2017-02-13T01:33:05.798Z,74.98
2017-02-13T01:33:27.508Z,75.03
2017-02-13T01:33:58.785Z,74.97
2017-02-13T01:34:20.465Z,74.92
2017-02-13T01:34:46.933Z,74.92
2017-02-13T01:35:08.634Z,74.92
2017-02-13T01:35:30.436Z,75.05
2017-02-13T01:35:56.916Z,75.33
2017-02-13T01:36:18.617Z,75.32
2017-02-13T01:36:45.101Z,75.20
2017-02-13T01:37:06.794Z,75.16
2017-02-13T01:37:38.074Z,75.08
2017-02-13T01:37:59.791Z,74.99
2017-02-13T01:38:31.045Z,75.04
2017-02-13T01:38:52.762Z,75.05
2017-02-13T01:39:14.485Z,74.93
2017-02-13T01:39:45.736Z,74.85
2017-02-13T01:40:07.430Z,74.87
2017-02-13T01:40:29.125Z,74.85
2017-02-13T01:40:50.842Z,74.55
2017-02-13T01:41:12.565Z,74.65
2017-02-13T01:41:34.277Z,74.74
2017-02-13T01:42:00.770Z,74.76
2017-02-13T01:42:22.469Z,74.76
2017-02-13T01:42:44.318Z,74.83
2017-02-13T01:43:10.805Z,74.88
2017-02-13T01:43:32.511Z,74.86
2017-02-13T01:43:54.220Z,74.93
2017-02-13T01:44:20.711Z,74.95
2017-02-13T01:44:42.432Z,74.87
2017-02-13T01:45:04.133Z,74.82
2017-02-13T01:45:30.606Z,74.91
2017-02-13T01:45:52.318Z,75.06
2017-02-13T01:46:23.562Z,75.16
2017-02-13T01:46:45.287Z,75.20
2017-02-13T01:47:16.537Z,75.19
2017-02-13T01:47:38.245Z,75.17
2017-02-13T01:47:59.965Z,75.00
2017-02-13T01:48:26.443Z,75.00
2017-02-13T01:48:48.142Z,74.94
2017-02-13T01:49:14.631Z,74.98
2017-02-13T01:49:36.328Z,74.94
2017-02-13T01:50:39.398Z,74.76
2017-02-13T01:51:01.099Z,74.80
2017-02-13T01:51:22.801Z,74.90
2017-02-13T01:51:44.507Z,74.99
2017-02-13T01:52:06.212Z,75.23
2017-02-13T01:52:27.912Z,75.23
2017-02-13T01:52:49.619Z,75.18
2017-02-13T01:53:11.333Z,75.22
2017-02-13T01:53:33.031Z,75.12
2017-02-13T01:53:59.512Z,75.11
2017-02-13T01:54:21.221Z,75.14
2017-02-13T01:54:42.916Z,75.08
2017-02-13T01:55:04.621Z,75.03
2017-02-13T01:55:26.316Z,75.11
2017-02-13T01:55:48.017Z,75.11
2017-02-13T01:56:14.499Z,74.97
2017-02-13T01:56:36.196Z,74.95
2017-02-13T01:56:57.905Z,74.94
2017-02-13T01:57:24.383Z,74.90
2017-02-13T01:57:46.079Z,74.97
2017-02-13T01:58:49.173Z,74.71
2017-02-13T01:59:10.885Z,74.79
2017-02-13T01:59:32.591Z,74.82
2017-02-13T01:59:59.073Z,74.66
2017-02-13T02:00:20.776Z,74.56
2017-02-13T02:00:52.025Z,74.57
2017-02-13T02:01:13.736Z,74.60
2017-02-13T02:01:35.443Z,74.62
2017-02-13T02:01:57.146Z,74.80
2017-02-13T02:02:54.880Z,74.72
2017-02-13T02:03:16.601Z,74.92
2017-02-13T02:03:43.079Z,75.01
2017-02-13T02:04:04.789Z,75.04
2017-02-13T02:04:26.524Z,75.11
2017-02-13T02:04:57.781Z,75.26
2017-02-13T02:05:19.485Z,75.41
2017-02-13T02:05:50.749Z,75.23
2017-02-13T02:06:12.448Z,75.23
2017-02-13T02:06:34.157Z,75.22
2017-02-13T02:07:05.408Z,75.13
2017-02-13T02:07:27.101Z,75.04
2017-02-13T02:07:58.352Z,75.00
2017-02-13T02:08:20.049Z,74.96
2017-02-13T02:08:51.316Z,74.89
2017-02-13T02:09:13.025Z,74.96
2017-02-13T02:09:34.763Z,75.24
2017-02-13T02:10:01.238Z,75.39
2017-02-13T02:10:22.932Z,75.64
2017-02-13T02:10:44.635Z,75.73
2017-02-13T02:11:06.337Z,75.61
2017-02-13T02:11:28.031Z,75.50
2017-02-13T02:11:49.732Z,75.36
2017-02-13T02:12:11.448Z,75.36
2017-02-13T02:12:33.156Z,75.39
2017-02-13T02:12:54.874Z,75.29
2017-02-13T02:13:16.572Z,75.22
2017-02-13T02:13:38.272Z,75.14
2017-02-13T02:13:59.982Z,75.05
2017-02-13T02:14:21.697Z,75.04
2017-02-13T02:14:43.425Z,75.00
2017-02-13T02:15:09.913Z,75.04
2017-02-13T02:15:31.615Z,74.91
2017-02-13T02:15:53.303Z,75.00
2017-02-13T02:16:24.555Z,75.14
2017-02-13T02:16:46.267Z,75.10
2017-02-13T02:17:12.762Z,75.26
2017-02-13T02:17:34.469Z,75.31
2017-02-13T02:18:05.728Z,75.33
2017-02-13T02:18:27.425Z,75.18
2017-02-13T02:18:49.131Z,75.10
2017-02-13T02:19:10.826Z,75.25
2017-02-13T02:19:32.529Z,75.45
2017-02-13T02:19:54.270Z,75.50
2017-02-13T02:20:15.979Z,75.49
2017-02-13T02:20:37.694Z,75.29
2017-02-13T02:20:59.401Z,75.25
2017-02-13T02:21:21.104Z,75.15
2017-02-13T02:21:42.801Z,75.03
2017-02-13T02:22:04.503Z,75.09
2017-02-13T02:22:26.239Z,75.10
2017-02-13T02:22:47.943Z,75.19
2017-02-13T02:23:09.656Z,75.16
2017-02-13T02:23:36.115Z,75.35
2017-02-13T02:23:57.851Z,75.31
2017-02-13T02:24:29.073Z,75.47
2017-02-13T02:24:50.764Z,75.70
2017-02-13T02:25:22.017Z,75.63
2017-02-13T02:25:43.717Z,75.59
2017-02-13T02:26:05.424Z,75.57
2017-02-13T02:26:27.134Z,75.60
2017-02-13T02:26:48.835Z,75.46
2017-02-13T02:27:10.529Z,75.21
2017-02-13T02:27:37.018Z,75.37
2017-02-13T02:27:58.814Z,75.48
2017-02-13T02:28:20.528Z,75.68
2017-02-13T02:28:47.022Z,75.64
2017-02-13T02:29:08.724Z,75.53
2017-02-13T02:29:30.424Z,75.43
2017-02-13T02:29:52.151Z,75.35
2017-02-13T02:30:13.843Z,75.34
2017-02-13T02:30:40.321Z,75.24
2017-02-13T02:31:02.032Z,75.31
2017-02-13T02:31:23.723Z,75.32
2017-02-13T02:31:45.419Z,75.50
2017-02-13T02:32:07.121Z,75.40
2017-02-13T02:32:38.381Z,75.33
2017-02-13T02:33:00.097Z,75.60
2017-02-13T02:33:58.467Z,75.64
2017-02-13T02:34:20.170Z,75.62
2017-02-13T02:34:51.458Z,75.36
2017-02-13T02:35:13.162Z,75.60
2017-02-13T02:35:44.420Z,75.78
2017-02-13T02:36:06.110Z,75.74
2017-02-13T02:36:27.817Z,75.60
2017-02-13T02:36:49.530Z,75.61
2017-02-13T02:37:11.225Z,75.60
2017-02-13T02:37:37.706Z,75.51
2017-02-13T02:37:59.422Z,75.27
2017-02-13T02:38:21.141Z,75.29
2017-02-13T02:38:52.402Z,75.21
2017-02-13T02:39:14.107Z,75.08
2017-02-13T02:39:35.813Z,75.01
2017-02-13T02:39:57.528Z,75.00
2017-02-13T02:40:19.226Z,75.00
2017-02-13T02:40:40.924Z,74.95
2017-02-13T02:41:07.397Z,74.97
2017-02-13T02:41:29.136Z,74.83
2017-02-13T02:42:56.642Z,74.83
2017-02-13T02:43:18.435Z,74.93
2017-02-13T02:43:44.914Z,74.92
2017-02-13T02:44:06.645Z,74.91
2017-02-13T02:44:28.369Z,74.86
2017-02-13T02:44:54.858Z,74.90
2017-02-13T02:45:16.567Z,74.99
2017-02-13T02:45:38.275Z,75.00
2017-02-13T02:45:59.982Z,75.00
2017-02-13T02:46:21.678Z,74.96
2017-02-13T02:46:43.402Z,74.95
2017-02-13T02:47:09.873Z,75.08
2017-02-13T02:47:31.576Z,75.09
2017-02-13T02:47:53.276Z,75.16
2017-02-13T02:48:24.531Z,75.16
2017-02-13T02:48:46.250Z,75.27
2017-02-13T02:49:07.943Z,75.46
2017-02-13T02:49:39.195Z,75.40
2017-02-13T02:50:00.891Z,75.29
2017-02-13T02:50:22.596Z,75.11
2017-02-13T02:50:53.858Z,75.14
2017-02-13T02:51:15.557Z,75.26
2017-02-13T02:51:37.260Z,75.19
2017-02-13T02:52:03.726Z,75.29
2017-02-13T02:52:25.457Z,75.23
2017-02-13T02:52:51.945Z,75.11
2017-02-13T02:53:13.639Z,75.03
2017-02-13T02:53:40.123Z,74.98
2017-02-13T02:54:01.817Z,75.05
2017-02-13T02:54:28.291Z,75.01
2017-02-13T02:54:49.992Z,75.03
2017-02-13T02:55:11.708Z,75.08
2017-02-13T02:55:38.185Z,75.15
2017-02-13T02:55:59.904Z,74.88
2017-02-13T02:56:21.617Z,74.86
2017-02-13T02:56:48.103Z,74.85
2017-02-13T02:57:09.803Z,74.87
2017-02-13T02:57:31.530Z,74.90
2017-02-13T02:57:53.256Z,74.90
2017-02-13T02:58:14.949Z,74.90
2017-02-13T02:58:41.438Z,74.78
2017-02-13T02:59:03.147Z,74.77
2017-02-13T02:59:24.849Z,74.83
2017-02-13T02:59:51.320Z,74.80
2017-02-13T03:00:13.032Z,74.77
2017-02-13T03:00:39.509Z,74.77
2017-02-13T03:01:01.219Z,74.74
2017-02-13T03:01:27.694Z,74.68
2017-02-13T03:01:49.432Z,74.91
2017-02-13T03:02:11.137Z,74.81
2017-02-13T03:02:37.606Z,74.90
2017-02-13T03:02:59.315Z,74.97
2017-02-13T03:03:25.787Z,75.02
2017-02-13T03:03:47.519Z,74.98
2017-02-13T03:04:09.212Z,74.98
2017-02-13T03:04:40.475Z,75.00
2017-02-13T03:05:02.180Z,75.06
2017-02-13T03:05:28.660Z,74.97
2017-02-13T03:05:50.363Z,75.08
2017-02-13T03:06:12.080Z,75.27
2017-02-13T03:06:43.336Z,75.24
2017-02-13T03:07:05.035Z,75.18
2017-02-13T03:07:31.550Z,75.16
2017-02-13T03:07:53.259Z,75.25
2017-02-13T03:08:14.971Z,75.33
2017-02-13T03:08:36.679Z,75.51
2017-02-13T03:08:58.389Z,75.65
2017-02-13T03:09:24.868Z,75.58
2017-02-13T03:09:46.574Z,75.41
2017-02-13T03:10:08.286Z,75.47
2017-02-13T03:10:39.526Z,75.43
2017-02-13T03:11:01.250Z,75.42
2017-02-13T03:11:27.720Z,75.43
2017-02-13T03:11:49.417Z,75.31
2017-02-13T03:12:11.130Z,75.22
2017-02-13T03:12:32.856Z,75.08
2017-02-13T03:12:54.557Z,75.32
2017-02-13T03:13:16.251Z,75.32
2017-02-13T03:13:42.731Z,75.26
2017-02-13T03:14:04.433Z,75.15
2017-02-13T03:14:35.697Z,75.04
2017-02-13T03:14:57.403Z,75.00
2017-02-13T03:15:19.108Z,75.05
2017-02-13T03:15:40.825Z,75.09
2017-02-13T03:16:02.543Z,75.15
2017-02-13T03:16:24.248Z,75.09
2017-02-13T03:16:50.727Z,75.02
2017-02-13T03:17:12.420Z,74.97
2017-02-13T03:17:38.909Z,74.92
2017-02-13T03:18:00.626Z,74.98
2017-02-13T03:18:22.327Z,74.94
2017-02-13T03:18:44.040Z,74.74
2017-02-13T03:19:05.732Z,74.87
2017-02-13T03:19:32.223Z,74.98
2017-02-13T03:19:53.938Z,75.08
2017-02-13T03:20:20.469Z,75.13
2017-02-13T03:20:42.172Z,75.05
2017-02-13T03:21:08.646Z,75.02
2017-02-13T03:21:35.122Z,75.04
2017-02-13T03:21:56.827Z,75.09
2017-02-13T03:22:28.084Z,74.96
2017-02-13T03:22:49.784Z,75.11
2017-02-13T03:23:11.511Z,75.03
2017-02-13T03:23:37.983Z,74.80
2017-02-13T03:23:59.691Z,74.70
2017-02-13T03:24:30.943Z,74.63
2017-02-13T03:24:52.634Z,74.71
2017-02-13T03:25:23.883Z,74.64
2017-02-13T03:25:45.591Z,74.63
2017-02-13T03:26:07.301Z,74.65
2017-02-13T03:26:33.783Z,74.70
2017-02-13T03:26:55.492Z,75.06
2017-02-13T03:27:21.966Z,75.14
2017-02-13T03:27:43.666Z,75.16
2017-02-13T03:28:10.140Z,75.27
2017-02-13T03:28:31.850Z,75.17
2017-02-13T03:28:58.325Z,75.03
2017-02-13T03:29:20.025Z,74.88
2017-02-13T03:29:41.742Z,74.78
2017-02-13T03:30:08.221Z,74.98
2017-02-13T03:30:29.918Z,75.10
2017-02-13T03:31:33.039Z,75.52
2017-02-13T03:31:54.761Z,75.47
2017-02-13T03:32:16.468Z,75.48
2017-02-13T03:32:42.953Z,75.37
2017-02-13T03:33:04.648Z,75.24
2017-02-13T03:33:35.907Z,75.14
2017-02-13T03:33:57.617Z,75.20
2017-02-13T03:34:19.328Z,75.35
2017-02-13T03:34:45.800Z,75.41
2017-02-13T03:35:07.512Z,75.36
2017-02-13T03:35:38.770Z,75.25
2017-02-13T03:36:00.476Z,75.30
2017-02-13T03:36:26.958Z,75.25
2017-02-13T03:36:48.659Z,75.17
2017-02-13T03:37:46.936Z,75.27
2017-02-13T03:38:08.631Z,75.22
2017-02-13T03:38:30.335Z,75.20
2017-02-13T03:38:52.049Z,75.28
2017-02-13T03:39:13.761Z,75.32
2017-02-13T03:39:35.461Z,75.35
2017-02-13T03:40:06.738Z,75.24
2017-02-13T03:40:28.435Z,75.13
2017-02-13T03:40:50.145Z,75.16
2017-02-13T03:41:11.852Z,75.12
2017-02-13T03:41:33.566Z,75.15
2017-02-13T03:41:55.277Z,75.10
2017-02-13T03:42:21.761Z,74.99
2017-02-13T03:42:43.463Z,75.06
2017-02-13T03:43:14.731Z,74.96
2017-02-13T03:43:36.430Z,74.86
2017-02-13T03:43:58.142Z,74.83
2017-02-13T03:44:24.623Z,74.91
2017-02-13T03:44:46.316Z,75.01
2017-02-13T03:45:08.048Z,74.94
2017-02-13T03:45:29.768Z,74.92
2017-02-13T03:45:51.441Z,74.95
2017-02-13T03:46:13.148Z,75.16
2017-02-13T03:46:34.852Z,75.44
2017-02-13T03:46:56.568Z,75.50
2017-02-13T03:47:27.820Z,75.66
2017-02-13T03:47:49.535Z,75.70
2017-02-13T03:48:11.244Z,75.59
2017-02-13T03:48:32.965Z,75.48
2017-02-13T03:48:54.663Z,75.37
2017-02-13T03:49:16.377Z,75.26
2017-02-13T03:49:38.082Z,75.12
2017-02-13T03:49:59.779Z,75.25
2017-02-13T03:50:21.502Z,75.25
2017-02-13T03:50:43.211Z,75.26
2017-02-13T03:51:04.907Z,75.11
2017-02-13T03:51:26.616Z,75.09
2017-02-13T03:51:48.319Z,75.18
2017-02-13T03:52:10.078Z,75.18
2017-02-13T03:52:31.774Z,75.23
2017-02-13T03:52:53.483Z,75.18
2017-02-13T03:53:15.185Z,75.09
2017-02-13T03:53:36.878Z,75.07
2017-02-13T03:54:03.353Z,75.03
2017-02-13T03:54:25.054Z,75.04
2017-02-13T03:54:46.769Z,75.43
2017-02-13T03:55:08.470Z,75.59
2017-02-13T03:55:30.180Z,75.70
2017-02-13T03:56:01.448Z,75.72
2017-02-13T03:56:23.199Z,75.54
2017-02-13T03:56:44.920Z,75.48
2017-02-13T03:57:11.435Z,75.42
2017-02-13T03:57:33.157Z,75.40
2017-02-13T03:57:54.884Z,75.29
2017-02-13T03:58:16.593Z,75.31
2017-02-13T03:58:38.293Z,75.29
2017-02-13T03:59:09.557Z,75.24
2017-02-13T03:59:31.277Z,75.17
2017-02-13T03:59:53.009Z,75.08
2017-02-13T04:00:19.506Z,75.13
2017-02-13T04:00:41.226Z,75.26
2017-02-13T04:01:07.713Z,75.29
2017-02-13T04:01:29.429Z,75.33
2017-02-13T04:01:55.906Z,75.41
2017-02-13T04:02:17.624Z,75.34
2017-02-13T04:02:44.104Z,75.27
2017-02-13T04:03:05.820Z,75.21
2017-02-13T04:03:27.533Z,75.31
2017-02-13T04:04:34.821Z,75.68
2017-02-13T04:04:56.536Z,75.58
2017-02-13T04:05:59.051Z,75.59
2017-02-13T04:06:20.779Z,75.64
2017-02-13T04:06:42.497Z,75.84
2017-02-13T04:07:08.976Z,75.90
2017-02-13T04:07:30.703Z,75.75
2017-02-13T04:08:01.960Z,75.87
2017-02-13T04:08:23.660Z,75.78
2017-02-13T04:08:45.371Z,75.76
2017-02-13T04:09:11.841Z,75.79
2017-02-13T04:09:33.583Z,75.66
2017-02-13T04:09:55.296Z,75.60
2017-02-13T04:10:17.006Z,75.56
2017-02-13T04:10:38.722Z,75.54
2017-02-13T04:11:00.446Z,75.52
2017-02-13T04:11:26.929Z,75.45
2017-02-13T04:11:48.636Z,75.29
2017-02-13T04:12:15.125Z,75.23
2017-02-13T04:12:36.842Z,75.20
2017-02-13T04:13:08.092Z,75.10
2017-02-13T04:13:29.787Z,75.32
2017-02-13T04:14:01.051Z,75.45
2017-02-13T04:14:22.799Z,75.34
2017-02-13T04:14:54.057Z,75.38
2017-02-13T04:15:15.775Z,75.31
2017-02-13T04:15:37.480Z,75.28
2017-02-13T04:15:59.186Z,75.46
2017-02-13T04:16:20.904Z,75.45
2017-02-13T04:17:23.961Z,75.48
2017-02-13T04:17:45.669Z,75.51
2017-02-13T04:18:16.917Z,75.42
2017-02-13T04:18:38.616Z,75.32
2017-02-13T04:19:00.318Z,75.29
2017-02-13T04:19:22.032Z,75.28
2017-02-13T04:19:43.741Z,75.40
2017-02-13T04:20:10.219Z,75.45
2017-02-13T04:20:31.912Z,75.41
2017-02-13T04:20:58.392Z,75.46
2017-02-13T04:21:20.086Z,75.54
2017-02-13T04:21:41.780Z,75.70
2017-02-13T04:22:13.021Z,75.62
2017-02-13T04:22:34.727Z,75.59
2017-02-13T04:22:56.436Z,75.46
2017-02-13T04:23:18.168Z,75.53
2017-02-13T04:23:39.892Z,75.72
2017-02-13T04:24:01.619Z,75.64
2017-02-13T04:24:28.102Z,75.57
2017-02-13T04:24:49.810Z,75.59
2017-02-13T04:25:11.511Z,75.56
2017-02-13T04:25:33.220Z,75.49
2017-02-13T04:25:54.917Z,75.50
2017-02-13T04:26:16.619Z,75.65
2017-02-13T04:26:47.884Z,75.79
2017-02-13T04:27:09.608Z,75.82
2017-02-13T04:28:12.687Z,75.71
2017-02-13T04:28:34.398Z,75.58
2017-02-13T04:28:56.144Z,75.59
2017-02-13T04:29:27.404Z,75.85
2017-02-13T04:29:51.781Z,75.89
2017-02-13T04:30:18.260Z,75.82
2017-02-13T04:30:39.963Z,75.83
2017-02-13T04:31:43.037Z,75.68
2017-02-13T04:32:04.736Z,75.67
2017-02-13T04:32:26.462Z,75.60
2017-02-13T04:32:48.175Z,75.60
2017-02-13T04:33:09.880Z,75.58
2017-02-13T04:34:12.982Z,75.41
2017-02-13T04:34:34.726Z,75.42
2017-02-13T04:35:33.013Z,75.74
2017-02-13T04:35:54.710Z,75.83
2017-02-13T04:37:01.995Z,75.71
2017-02-13T04:37:23.701Z,75.64
2017-02-13T04:37:45.409Z,75.75
2017-02-13T04:38:11.925Z,75.74
2017-02-13T04:38:33.649Z,75.81
2017-02-13T04:39:00.140Z,75.84
2017-02-13T04:39:21.861Z,75.71
2017-02-13T04:39:43.585Z,75.64
2017-02-13T04:40:10.067Z,75.58
2017-02-13T04:40:31.768Z,75.58
2017-02-13T04:40:53.495Z,75.56
2017-02-13T04:41:19.976Z,75.53
2017-02-13T04:41:41.690Z,75.60
2017-02-13T04:42:08.169Z,75.56
2017-02-13T04:42:29.872Z,75.45
2017-02-13T04:42:51.589Z,75.40
2017-02-13T04:43:13.311Z,75.27
2017-02-13T04:43:35.039Z,75.25
2017-02-13T04:44:06.303Z,75.28
2017-02-13T04:44:28.017Z,75.30
2017-02-13T04:44:59.284Z,75.30
2017-02-13T04:45:21.010Z,75.39
2017-02-13T04:46:28.290Z,75.54
2017-02-13T04:46:50.006Z,75.69
2017-02-13T04:47:16.486Z,75.80
2017-02-13T04:47:38.199Z,75.86
2017-02-13T04:48:04.701Z,75.68
2017-02-13T04:48:26.413Z,75.66
2017-02-13T04:48:52.895Z,75.50
2017-02-13T04:49:14.600Z,75.30
2017-02-13T04:49:41.074Z,75.31
2017-02-13T04:50:02.796Z,75.30
2017-02-13T04:50:24.508Z,75.43
2017-02-13T04:50:46.213Z,75.48
2017-02-13T04:51:12.700Z,75.62
2017-02-13T04:51:34.391Z,75.62
2017-02-13T04:52:00.875Z,75.56
2017-02-13T04:52:22.583Z,75.55
2017-02-13T04:53:25.658Z,75.78
2017-02-13T04:53:47.380Z,75.92
2017-02-13T04:54:54.672Z,76.25
2017-02-13T04:55:16.389Z,76.16
2017-02-13T04:55:38.120Z,76.13
2017-02-13T04:56:41.221Z,76.05
2017-02-13T04:57:02.961Z,76.07
2017-02-13T04:58:11.284Z,76.21
2017-02-13T04:58:33.093Z,76.13
2017-02-13T04:58:59.567Z,75.95
2017-02-13T04:59:21.317Z,75.82
2017-02-13T04:59:47.803Z,75.69
2017-02-13T05:00:09.534Z,75.72
2017-02-13T05:00:36.025Z,75.71
2017-02-13T05:00:57.752Z,75.70
2017-02-13T05:01:24.261Z,75.65
2017-02-13T05:01:46.091Z,75.66
2017-02-13T05:02:17.317Z,75.63
2017-02-13T05:02:39.013Z,75.56
2017-02-13T05:03:05.503Z,75.43
2017-02-13T05:03:27.224Z,75.41
2017-02-13T05:03:48.943Z,75.43
2017-02-13T05:04:56.251Z,75.46
2017-02-13T05:05:17.967Z,75.35
2017-02-13T05:05:39.686Z,75.19
2017-02-13T05:06:42.768Z,75.56
2017-02-13T05:07:05.700Z,75.56
2017-02-13T05:07:27.422Z,75.68
2017-02-13T05:07:53.910Z,75.68
2017-02-13T05:08:15.630Z,75.64
2017-02-13T05:08:37.455Z,75.58
2017-02-13T05:08:59.190Z,75.54
2017-02-13T05:09:20.888Z,75.61
2017-02-13T05:09:52.156Z,75.63
2017-02-13T05:10:13.861Z,75.62
2017-02-13T05:10:45.122Z,75.59
2017-02-13T05:11:06.888Z,75.53
2017-02-13T05:11:28.594Z,75.64
2017-02-13T05:11:59.854Z,76.08
2017-02-13T05:12:21.571Z,76.07
2017-02-13T05:12:52.833Z,75.95
2017-02-13T05:13:14.540Z,75.85
2017-02-13T05:13:36.373Z,75.74
2017-02-13T05:13:58.105Z,75.76
2017-02-13T05:14:19.822Z,75.65
2017-02-13T05:14:51.073Z,75.52
2017-02-13T05:15:12.781Z,75.40
2017-02-13T05:15:44.041Z,75.32
2017-02-13T05:16:05.765Z,75.27
2017-02-13T05:16:32.248Z,75.55
2017-02-13T05:16:53.988Z,75.72
2017-02-13T05:17:15.701Z,75.71
2017-02-13T05:17:42.177Z,75.62
2017-02-13T05:18:03.880Z,75.63
2017-02-13T05:18:25.583Z,75.70
2017-02-13T05:18:52.078Z,75.73
2017-02-13T05:19:13.780Z,75.70
2017-02-13T05:19:40.264Z,75.69
2017-02-13T05:20:01.980Z,75.72
2017-02-13T05:20:23.688Z,75.69
2017-02-13T05:20:54.943Z,75.59
2017-02-13T05:21:16.668Z,75.60
2017-02-13T05:21:38.356Z,75.62
2017-02-13T05:22:00.101Z,75.65
2017-02-13T05:22:21.803Z,75.56
2017-02-13T05:22:43.521Z,75.44
2017-02-13T05:23:05.234Z,75.42
2017-02-13T05:23:26.946Z,75.45
2017-02-13T05:23:51.239Z,75.50
2017-02-13T05:24:13.086Z,75.51
2017-02-13T05:24:34.807Z,75.52
2017-02-13T05:24:56.517Z,75.42